createdAt,value
2022-09-14T00:01:40.668Z,95.88
2022-09-14T00:03:57.764Z,93.46
2022-09-14T00:06:15.703Z,94.17
2022-09-14T00:08:32.718Z,96.18
2022-09-14T00:10:51.882Z,95.93
2022-09-14T00:13:08.942Z,96.23
2022-09-14T00:15:27.248Z,97.19
2022-09-14T00:17:44.232Z,97.32
2022-09-14T00:20:01.499Z,96.79
2022-09-14T00:22:18.498Z,95.19
2022-09-14T00:24:35.512Z,96.00
2022-09-14T00:26:52.824Z,95.84
2022-09-14T00:29:09.780Z,95.74
2022-09-14T00:31:27.327Z,97.56
2022-09-14T00:33:44.223Z,95.80
2022-09-14T00:36:01.177Z,96.41
2022-09-14T00:38:18.095Z,97.15
2022-09-14T00:40:35.146Z,97.67
2022-09-14T00:42:52.133Z,97.88
2022-09-14T00:45:09.477Z,97.45
2022-09-14T00:47:26.394Z,98.48
2022-09-14T00:49:43.314Z,97.89
2022-09-14T00:52:00.325Z,98.16
2022-09-14T00:54:17.207Z,97.03
2022-09-14T00:56:34.696Z,97.38
2022-09-14T00:58:51.710Z,96.70
2022-09-14T01:01:08.903Z,98.19
2022-09-14T01:03:25.959Z,97.28
2022-09-14T01:05:42.955Z,97.00
2022-09-14T01:08:00.026Z,98.43
2022-09-14T01:10:18.152Z,97.01
2022-09-14T01:12:35.386Z,98.20
2022-09-14T01:14:52.542Z,97.16
2022-09-14T01:17:09.546Z,98.78
2022-09-14T01:19:26.611Z,98.88
2022-09-14T01:21:43.835Z,98.08
2022-09-14T01:24:01.132Z,99.19
2022-09-14T01:26:18.083Z,99.17
2022-09-14T01:28:35.220Z,97.32
2022-09-14T01:30:52.109Z,97.46
2022-09-14T01:33:10.051Z,98.65
2022-09-14T01:35:26.941Z,98.33
2022-09-14T01:37:44.302Z,99.13
2022-09-14T01:40:01.672Z,98.74
2022-09-14T01:42:18.655Z,96.95
2022-09-14T01:44:35.704Z,99.11
2022-09-14T01:46:52.575Z,97.31
2022-09-14T01:49:09.867Z,99.27
2022-09-14T01:51:26.793Z,97.68
2022-09-14T01:53:43.839Z,97.83
2022-09-14T01:56:00.912Z,99.07
2022-09-14T01:58:17.930Z,99.23
2022-09-14T02:00:34.957Z,97.58
2022-09-14T02:02:52.028Z,97.50
2022-09-14T02:05:09.003Z,97.54
2022-09-14T02:07:26.089Z,97.76
2022-09-14T02:09:43.321Z,98.08
2022-09-14T02:12:00.312Z,100.00
2022-09-14T02:14:17.207Z,100.00
2022-09-14T02:16:34.545Z,98.67
2022-09-14T02:18:51.823Z,98.06
2022-09-14T02:21:08.864Z,98.14
2022-09-14T02:23:25.773Z,97.65
2022-09-14T02:25:42.742Z,97.58
2022-09-14T02:27:59.988Z,97.66
2022-09-14T02:30:16.961Z,98.88
2022-09-14T02:32:34.124Z,97.56
2022-09-14T02:34:51.384Z,97.71
2022-09-14T02:37:08.336Z,97.75
2022-09-14T02:39:25.257Z,97.75
2022-09-14T02:41:42.315Z,96.09
2022-09-14T02:44:00.246Z,97.52
2022-09-14T02:46:17.240Z,96.58
2022-09-14T02:48:34.320Z,96.95
2022-09-14T02:50:51.536Z,96.86
2022-09-14T02:53:08.784Z,98.33
2022-09-14T02:55:26.001Z,97.68
2022-09-14T02:57:43.015Z,96.97
2022-09-14T02:59:59.945Z,96.99
2022-09-14T03:02:17.309Z,97.33
2022-09-14T03:04:34.271Z,99.21
2022-09-14T03:06:51.308Z,97.57
2022-09-14T03:09:08.223Z,98.92
2022-09-14T03:11:25.558Z,98.24
2022-09-14T03:13:42.472Z,97.25
2022-09-14T03:15:59.456Z,97.10
2022-09-14T03:18:17.787Z,97.14
2022-09-14T03:20:34.876Z,97.32
2022-09-14T03:22:52.124Z,97.55
2022-09-14T03:25:09.372Z,97.55
2022-09-14T03:27:26.429Z,97.88
2022-09-14T03:29:44.415Z,98.67
2022-09-14T03:32:01.285Z,97.56
2022-09-14T03:34:18.610Z,97.72
2022-09-14T03:36:35.467Z,97.76
2022-09-14T03:38:52.405Z,97.90
2022-09-14T03:41:09.323Z,99.54
2022-09-14T03:43:26.523Z,99.12
2022-09-14T03:45:43.430Z,97.18
2022-09-14T03:48:00.694Z,97.37
2022-09-14T03:50:17.729Z,97.17
2022-09-14T03:52:36.002Z,97.26
2022-09-14T03:54:53.042Z,97.48
2022-09-14T03:57:10.316Z,99.45
2022-09-14T03:59:27.631Z,99.29
2022-09-14T04:01:44.556Z,99.45
2022-09-14T04:04:01.689Z,98.57
2022-09-14T04:06:18.629Z,98.94
2022-09-14T04:08:35.668Z,98.53
2022-09-14T04:10:52.916Z,98.77
2022-09-14T04:13:10.231Z,96.84
2022-09-14T04:15:27.563Z,99.35
2022-09-14T04:17:44.848Z,99.04
2022-09-14T04:20:01.860Z,99.21
2022-09-14T04:22:20.470Z,99.76
2022-09-14T04:24:37.502Z,99.84
2022-09-14T04:26:54.802Z,98.10
2022-09-14T04:29:11.731Z,98.80
2022-09-14T04:31:29.082Z,98.87
2022-09-14T04:33:46.359Z,99.62
2022-09-14T04:36:03.651Z,98.76
2022-09-14T04:38:20.704Z,100.00
2022-09-14T04:40:37.696Z,99.30
2022-09-14T04:42:54.707Z,99.25
2022-09-14T04:45:11.620Z,98.02
2022-09-14T04:47:28.624Z,99.26
2022-09-14T04:49:45.581Z,99.15
2022-09-14T04:52:02.495Z,100.00
2022-09-14T04:54:19.712Z,98.27
2022-09-14T04:56:36.703Z,99.12
2022-09-14T04:58:53.949Z,99.51
2022-09-14T05:01:11.046Z,98.35
2022-09-14T05:03:28.053Z,100.00
2022-09-14T05:05:45.086Z,98.96
2022-09-14T05:08:02.072Z,98.35
2022-09-14T05:10:19.091Z,98.31
2022-09-14T05:12:36.099Z,100.00
2022-09-14T05:14:53.146Z,97.79
2022-09-14T05:17:10.384Z,99.44
2022-09-14T05:19:27.399Z,99.20
2022-09-14T05:21:44.394Z,97.36
2022-09-14T05:24:01.285Z,97.68
2022-09-14T05:26:18.252Z,99.25
2022-09-14T05:28:35.500Z,98.82
2022-09-14T05:30:52.531Z,98.21
2022-09-14T05:33:09.872Z,97.06
2022-09-14T05:35:27.180Z,98.48
2022-09-14T05:37:44.181Z,97.48
2022-09-14T05:40:01.202Z,98.59
2022-09-14T05:42:18.452Z,99.97
2022-09-14T05:44:35.508Z,97.46
2022-09-14T05:46:52.461Z,99.08
2022-09-14T05:49:09.720Z,97.95
2022-09-14T05:51:27.032Z,98.87
2022-09-14T05:53:43.956Z,97.87
2022-09-14T05:56:02.172Z,98.36
2022-09-14T05:58:19.409Z,98.26
2022-09-14T06:00:36.690Z,99.05
2022-09-14T06:02:53.885Z,99.42
2022-09-14T06:05:10.892Z,97.89
2022-09-14T06:07:28.191Z,97.73
2022-09-14T06:09:45.502Z,98.28
2022-09-14T06:12:03.430Z,99.32
2022-09-14T06:14:20.681Z,99.26
2022-09-14T06:16:37.631Z,99.51
2022-09-14T06:18:54.630Z,98.72
2022-09-14T06:21:11.915Z,99.77
2022-09-14T06:23:29.213Z,98.90
2022-09-14T06:25:46.410Z,98.91
2022-09-14T06:28:03.387Z,99.27
2022-09-14T06:30:20.321Z,97.80
2022-09-14T06:32:37.293Z,98.47
2022-09-14T06:34:54.633Z,97.82
2022-09-14T06:37:11.898Z,97.72
2022-09-14T06:39:28.886Z,98.37
2022-09-14T06:41:45.789Z,97.01
2022-09-14T06:44:02.724Z,98.06
2022-09-14T06:46:19.646Z,96.73
2022-09-14T06:48:37.632Z,96.21
2022-09-14T06:50:55.535Z,96.31
2022-09-14T06:53:12.589Z,96.78
2022-09-14T06:55:29.847Z,96.28
2022-09-14T06:57:46.835Z,95.80
2022-09-14T07:00:03.835Z,96.06
2022-09-14T07:02:20.791Z,95.09
2022-09-14T07:04:37.863Z,95.53
2022-09-14T07:06:54.737Z,94.39
2022-09-14T07:09:11.977Z,94.02
2022-09-14T07:11:29.197Z,94.23
2022-09-14T07:13:46.081Z,93.97
2022-09-14T07:16:03.159Z,94.03
2022-09-14T07:18:20.351Z,92.97
2022-09-14T07:20:37.285Z,92.22
2022-09-14T07:22:54.334Z,92.85
2022-09-14T07:25:11.341Z,92.63
2022-09-14T07:27:28.290Z,92.78
2022-09-14T07:29:45.212Z,92.53
2022-09-14T07:32:02.259Z,92.26
2022-09-14T07:34:19.301Z,91.81
2022-09-14T07:36:36.535Z,92.25
2022-09-14T07:38:54.569Z,92.52
2022-09-14T07:41:11.508Z,92.30
2022-09-14T07:43:28.473Z,92.15
2022-09-14T07:45:45.538Z,91.20
2022-09-14T07:48:02.660Z,91.42
2022-09-14T07:50:19.990Z,91.88
2022-09-14T07:52:38.827Z,91.65
2022-09-14T07:54:55.845Z,92.27
2022-09-14T07:57:12.786Z,92.23
2022-09-14T07:59:37.595Z,92.39
2022-09-14T08:01:55.765Z,92.17
2022-09-14T08:04:12.802Z,92.41
2022-09-14T08:06:30.102Z,92.09
2022-09-14T08:08:47.128Z,92.12
2022-09-14T08:11:04.443Z,91.67
2022-09-14T08:13:21.793Z,91.57
2022-09-14T08:15:38.727Z,90.44
2022-09-14T08:17:56.453Z,88.83
2022-09-14T08:20:13.877Z,89.31
2022-09-14T08:22:31.010Z,88.81
2022-09-14T08:24:48.556Z,87.15
2022-09-14T08:27:06.010Z,86.34
2022-09-14T08:29:23.351Z,87.28
2022-09-14T08:31:40.761Z,86.17
2022-09-14T08:33:58.019Z,86.87
2022-09-14T08:36:15.063Z,86.64
2022-09-14T08:38:32.102Z,87.14
2022-09-14T08:40:49.193Z,87.30
2022-09-14T08:43:06.210Z,86.36
2022-09-14T08:45:23.463Z,85.45
2022-09-14T08:47:41.377Z,86.94
2022-09-14T08:49:58.324Z,86.42
2022-09-14T08:52:16.453Z,85.98
2022-09-14T08:54:35.246Z,87.00
2022-09-14T08:56:52.223Z,86.71
2022-09-14T08:59:09.436Z,87.41
2022-09-14T09:01:27.584Z,88.30
2022-09-14T09:03:45.013Z,88.01
2022-09-14T09:06:02.042Z,86.83
2022-09-14T09:08:19.313Z,85.82
2022-09-14T09:10:36.247Z,85.56
2022-09-14T09:12:53.237Z,85.99
2022-09-14T09:15:10.274Z,85.20
2022-09-14T09:17:27.460Z,86.47
2022-09-14T09:19:44.464Z,88.49
2022-09-14T09:22:01.358Z,86.57
2022-09-14T09:24:19.675Z,86.58
2022-09-14T09:26:36.668Z,86.48
2022-09-14T09:28:53.963Z,87.70
2022-09-14T09:31:14.603Z,88.84
2022-09-14T09:33:31.866Z,88.51
2022-09-14T09:35:48.875Z,89.42
2022-09-14T09:38:05.978Z,87.89
2022-09-14T09:40:23.106Z,86.60
2022-09-14T09:42:40.038Z,87.02
2022-09-14T09:45:01.778Z,88.67
2022-09-14T09:47:20.379Z,87.76
2022-09-14T09:49:41.376Z,87.53
2022-09-14T09:51:59.425Z,85.64
2022-09-14T09:54:16.607Z,87.40
2022-09-14T09:56:33.729Z,85.62
2022-09-14T09:58:51.069Z,87.33
2022-09-14T10:01:12.302Z,85.20
2022-09-14T10:03:29.656Z,84.42
2022-09-14T10:05:46.672Z,84.26
2022-09-14T10:08:06.915Z,84.57
2022-09-14T10:10:26.343Z,83.88
2022-09-14T10:12:43.719Z,83.04
2022-09-14T10:15:00.807Z,81.63
2022-09-14T10:17:18.427Z,82.91
2022-09-14T10:19:38.280Z,81.70
2022-09-14T10:21:55.738Z,79.99
2022-09-14T10:24:12.824Z,79.79
2022-09-14T10:26:29.950Z,79.38
2022-09-14T10:28:50.433Z,78.42
2022-09-14T10:31:07.493Z,78.88
2022-09-14T10:33:24.813Z,79.90
2022-09-14T10:35:41.892Z,78.80
2022-09-14T10:38:00.092Z,77.47
2022-09-14T10:40:17.252Z,77.59
2022-09-14T10:42:34.472Z,76.03
2022-09-14T10:44:51.498Z,76.78
2022-09-14T10:47:08.789Z,76.37
2022-09-14T10:49:26.079Z,76.23
2022-09-14T10:51:43.032Z,75.51
2022-09-14T10:54:00.464Z,74.92
2022-09-14T10:56:17.415Z,74.47
2022-09-14T10:58:35.749Z,76.53
2022-09-14T11:00:52.725Z,75.77
2022-09-14T11:03:10.068Z,74.52
2022-09-14T11:05:27.377Z,73.80
2022-09-14T11:07:44.372Z,74.08
2022-09-14T11:10:01.649Z,72.73
2022-09-14T11:12:18.632Z,73.17
2022-09-14T11:14:35.567Z,72.43
2022-09-14T11:16:52.806Z,72.25
2022-09-14T11:19:10.033Z,73.61
2022-09-14T11:21:27.185Z,73.57
2022-09-14T11:23:44.201Z,74.00
2022-09-14T11:26:01.160Z,73.17
2022-09-14T11:28:18.245Z,72.32
2022-09-14T11:30:35.154Z,72.88
2022-09-14T11:32:55.050Z,72.56
2022-09-14T11:35:13.232Z,72.39
2022-09-14T11:37:30.176Z,72.52
2022-09-14T11:39:47.337Z,71.30
2022-09-14T11:42:04.424Z,71.09
2022-09-14T11:44:23.018Z,71.02
2022-09-14T11:46:40.478Z,70.94
2022-09-14T11:48:58.102Z,69.97
2022-09-14T11:51:15.445Z,68.43
2022-09-14T11:53:32.610Z,67.75
2022-09-14T11:55:49.816Z,68.16
2022-09-14T11:58:07.196Z,67.26
2022-09-14T12:00:24.237Z,68.47
2022-09-14T12:02:43.249Z,69.84
2022-09-14T12:05:00.406Z,70.13
2022-09-14T12:07:17.320Z,71.10
2022-09-14T12:09:34.711Z,70.98
2022-09-14T12:11:51.660Z,72.18
2022-09-14T12:14:08.651Z,71.49
2022-09-14T12:16:25.733Z,71.13
2022-09-14T12:18:42.841Z,72.08
2022-09-14T12:20:59.926Z,71.75
2022-09-14T12:23:17.019Z,72.54
2022-09-14T12:25:34.410Z,72.64
2022-09-14T12:27:51.537Z,72.76
2022-09-14T12:30:08.542Z,72.80
2022-09-14T12:32:25.716Z,72.26
2022-09-14T12:34:42.694Z,72.04
2022-09-14T12:36:59.684Z,72.45
2022-09-14T12:39:16.763Z,72.93
2022-09-14T12:41:33.685Z,73.92
2022-09-14T12:43:51.205Z,73.86
2022-09-14T12:46:08.526Z,73.40
2022-09-14T12:48:26.568Z,74.44
2022-09-14T12:50:43.701Z,72.71
2022-09-14T12:53:01.749Z,73.91
2022-09-14T12:55:20.899Z,74.84
2022-09-14T12:57:38.341Z,74.42
2022-09-14T12:59:55.236Z,73.85
2022-09-14T13:02:12.460Z,74.42
2022-09-14T13:04:29.810Z,74.44
2022-09-14T13:06:46.784Z,75.39
2022-09-14T13:09:07.464Z,75.75
2022-09-14T13:11:27.471Z,74.98
2022-09-14T13:13:44.512Z,73.75
2022-09-14T13:16:03.280Z,75.03
2022-09-14T13:18:20.393Z,74.68
2022-09-14T13:20:38.376Z,75.88
2022-09-14T13:22:55.698Z,75.68
2022-09-14T13:25:12.772Z,75.46
2022-09-14T13:27:29.877Z,77.01
2022-09-14T13:29:46.811Z,77.04
2022-09-14T13:32:04.278Z,77.10
2022-09-14T13:34:21.589Z,77.92
2022-09-14T13:36:38.620Z,77.22
2022-09-14T13:38:55.680Z,77.68
2022-09-14T13:41:12.587Z,78.03
2022-09-14T13:43:29.560Z,78.65
2022-09-14T13:45:46.885Z,79.02
2022-09-14T13:48:03.833Z,78.67
2022-09-14T13:50:22.094Z,78.38
2022-09-14T13:53:00.664Z,79.20
2022-09-14T13:55:16.032Z,78.92
2022-09-14T13:57:34.281Z,79.44
2022-09-14T13:59:51.190Z,79.42
2022-09-14T14:02:08.507Z,79.23
2022-09-14T14:04:25.502Z,78.89
2022-09-14T14:06:42.696Z,78.62
2022-09-14T14:08:59.932Z,78.67
2022-09-14T14:11:17.765Z,79.87
2022-09-14T14:13:34.796Z,79.27
2022-09-14T14:15:51.760Z,79.47
2022-09-14T14:18:08.694Z,79.67
2022-09-14T14:20:25.717Z,79.54
2022-09-14T14:22:42.608Z,78.81
2022-09-14T14:25:16.250Z,77.97
2022-09-14T14:27:33.259Z,78.10
2022-09-14T14:29:50.324Z,78.37
2022-09-14T14:32:07.348Z,78.63
2022-09-14T14:34:24.464Z,78.80
2022-09-14T14:36:41.329Z,78.26
2022-09-14T14:38:58.265Z,76.77
2022-09-14T14:41:15.618Z,76.88
2022-09-14T14:43:32.502Z,77.69
2022-09-14T14:45:49.493Z,77.28
2022-09-14T14:48:06.528Z,77.31
2022-09-14T14:50:23.646Z,77.82
2022-09-14T14:52:40.502Z,77.91
2022-09-14T14:54:57.870Z,77.15
2022-09-14T14:57:14.972Z,78.15
2022-09-14T14:59:31.920Z,78.48
2022-09-14T15:01:49.178Z,78.83
2022-09-14T15:04:06.115Z,80.33
2022-09-14T15:06:23.294Z,81.02
2022-09-14T15:08:40.654Z,81.50
2022-09-14T15:10:58.129Z,83.30
2022-09-14T15:13:15.471Z,83.91
2022-09-14T15:15:32.510Z,84.25
2022-09-14T15:17:49.528Z,85.74
2022-09-14T15:20:06.558Z,86.10
2022-09-14T15:22:23.665Z,86.63
2022-09-14T15:24:40.646Z,85.01
2022-09-14T15:26:58.881Z,83.13
2022-09-14T15:29:15.771Z,83.62
2022-09-14T15:31:33.111Z,82.51
2022-09-14T15:33:50.416Z,83.60
2022-09-14T15:36:07.403Z,82.50
2022-09-14T15:38:24.481Z,82.11
2022-09-14T15:40:41.945Z,81.06
2022-09-14T15:42:59.007Z,80.31
2022-09-14T15:45:16.301Z,79.38
2022-09-14T15:47:36.407Z,79.58
2022-09-14T15:49:54.107Z,78.78
2022-09-14T15:52:10.997Z,78.42
2022-09-14T15:54:27.959Z,79.69
2022-09-14T15:56:46.224Z,79.81
2022-09-14T15:59:03.439Z,80.92
2022-09-14T16:01:21.460Z,75.58
2022-09-14T16:03:39.615Z,76.04
2022-09-14T16:05:57.821Z,78.35
2022-09-14T16:08:14.734Z,79.26
2022-09-14T16:10:31.707Z,77.66
2022-09-14T16:12:49.807Z,79.20
2022-09-14T16:15:06.724Z,80.32
2022-09-14T16:17:24.039Z,81.65
2022-09-14T16:19:41.342Z,82.62
2022-09-14T16:21:58.465Z,82.41
2022-09-14T16:24:15.553Z,82.44
2022-09-14T16:26:32.654Z,82.70
2022-09-14T16:28:50.486Z,83.58
2022-09-14T16:31:07.495Z,84.14
2022-09-14T16:33:24.603Z,84.01
2022-09-14T16:35:41.557Z,85.10
2022-09-14T16:37:59.024Z,84.91
2022-09-14T16:40:16.428Z,85.91
2022-09-14T16:42:33.735Z,86.41
2022-09-14T16:44:51.253Z,87.01
2022-09-14T16:47:08.252Z,87.69
2022-09-14T16:49:27.887Z,87.49
2022-09-14T16:51:46.488Z,87.71
2022-09-14T16:54:03.384Z,87.02
2022-09-14T16:56:21.345Z,87.65
2022-09-14T16:58:38.396Z,88.03
2022-09-14T17:00:56.746Z,88.37
2022-09-14T17:03:13.788Z,87.60
2022-09-14T17:05:30.789Z,87.73
2022-09-14T17:07:54.743Z,88.51
2022-09-14T17:10:14.373Z,88.65
2022-09-14T17:12:33.047Z,88.98
2022-09-14T17:14:50.220Z,89.57
2022-09-14T17:17:07.251Z,89.69
2022-09-14T17:19:24.516Z,89.69
2022-09-14T17:21:42.773Z,89.96
2022-09-14T17:24:00.119Z,90.50
2022-09-14T17:26:17.385Z,90.85
2022-09-14T17:28:34.351Z,91.02
2022-09-14T17:30:51.318Z,90.35
2022-09-14T17:33:08.337Z,90.70
2022-09-14T17:35:26.406Z,90.07
2022-09-14T17:37:44.324Z,90.42
2022-09-14T17:40:01.424Z,90.98
2022-09-14T17:42:18.663Z,91.45
2022-09-14T17:44:36.597Z,91.15
2022-09-14T17:46:53.675Z,90.28
2022-09-14T17:49:11.632Z,90.57
2022-09-14T17:51:30.790Z,90.94
2022-09-14T17:53:48.053Z,91.13
2022-09-14T17:56:05.042Z,91.53
2022-09-14T17:58:22.086Z,91.27
2022-09-14T18:00:39.484Z,91.39
2022-09-14T18:02:57.859Z,92.20
2022-09-14T18:05:15.265Z,92.23
2022-09-14T18:07:32.513Z,91.06
2022-09-14T18:09:53.815Z,90.92
2022-09-14T18:12:10.789Z,92.04
2022-09-14T18:14:28.015Z,91.05
2022-09-14T18:16:46.395Z,91.54
2022-09-14T18:19:03.431Z,90.81
2022-09-14T18:21:20.729Z,91.64
2022-09-14T18:23:38.715Z,91.74
2022-09-14T18:25:55.554Z,91.98
2022-09-14T18:28:13.472Z,92.28
2022-09-14T18:30:30.518Z,92.02
2022-09-14T18:32:48.442Z,92.89
2022-09-14T18:35:05.472Z,92.28
2022-09-14T18:37:22.777Z,92.32
2022-09-14T18:39:40.644Z,92.40
2022-09-14T18:41:57.529Z,91.59
2022-09-14T18:44:14.565Z,92.86
2022-09-14T18:46:33.032Z,91.64
2022-09-14T18:48:51.691Z,93.19
2022-09-14T18:51:08.669Z,92.42
2022-09-14T18:53:25.981Z,92.31
2022-09-14T18:55:44.256Z,92.40
2022-09-14T18:58:01.166Z,93.69
2022-09-14T19:00:18.782Z,93.25
2022-09-14T19:02:36.150Z,93.00
2022-09-14T19:04:54.105Z,92.44
2022-09-14T19:07:11.002Z,92.24
2022-09-14T19:09:28.813Z,92.55
2022-09-14T19:11:45.785Z,93.32
2022-09-14T19:14:02.694Z,92.21
2022-09-14T19:16:20.765Z,93.32
2022-09-14T19:18:37.776Z,91.79
2022-09-14T19:21:06.290Z,91.58
2022-09-14T19:23:24.160Z,92.45
2022-09-14T19:25:41.178Z,93.88
2022-09-14T19:27:58.084Z,93.02
2022-09-14T19:30:15.338Z,94.00
2022-09-14T19:32:32.272Z,93.50
2022-09-14T19:34:49.363Z,93.23
2022-09-14T19:37:06.647Z,92.59
2022-09-14T19:39:23.589Z,91.59
2022-09-14T19:41:41.694Z,92.41
2022-09-14T19:43:58.671Z,93.62
2022-09-14T19:46:15.725Z,93.77
2022-09-14T19:48:32.870Z,92.92
2022-09-14T19:50:49.973Z,92.37
2022-09-14T19:53:07.304Z,93.18
2022-09-14T19:55:24.459Z,93.98
2022-09-14T19:57:41.336Z,93.86
2022-09-14T19:59:58.336Z,93.38
2022-09-14T20:02:15.346Z,94.28
2022-09-14T20:04:32.331Z,93.13
2022-09-14T20:06:50.777Z,92.73
2022-09-14T20:09:07.705Z,94.38
2022-09-14T20:11:24.985Z,92.92
2022-09-14T20:13:41.950Z,94.45
2022-09-14T20:15:59.956Z,92.80
2022-09-14T20:18:17.289Z,94.33
2022-09-14T20:20:34.438Z,94.35
2022-09-14T20:22:51.690Z,94.15
2022-09-14T20:25:08.741Z,93.29
2022-09-14T20:27:26.023Z,94.91
2022-09-14T20:29:44.281Z,93.08
2022-09-14T20:32:01.364Z,94.86
2022-09-14T20:34:18.375Z,94.93
2022-09-14T20:36:36.292Z,94.70
2022-09-14T20:38:54.206Z,92.58
2022-09-14T20:41:11.243Z,93.50
2022-09-14T20:43:28.495Z,94.64
2022-09-14T20:45:45.428Z,94.50
2022-09-14T20:48:03.210Z,94.33
2022-09-14T20:50:20.491Z,93.26
2022-09-14T20:52:37.385Z,93.04
2022-09-14T20:54:54.315Z,94.50
2022-09-14T20:57:11.595Z,93.04
2022-09-14T20:59:29.584Z,93.31
2022-09-14T21:01:46.933Z,94.47
2022-09-14T21:04:04.577Z,94.70
2022-09-14T21:06:21.585Z,95.10
2022-09-14T21:08:38.740Z,94.18
2022-09-14T21:10:55.972Z,94.35
2022-09-14T21:13:13.204Z,93.47
2022-09-14T21:15:31.204Z,94.34
2022-09-14T21:17:48.315Z,94.94
2022-09-14T21:20:05.568Z,93.75
2022-09-14T21:22:22.532Z,95.72
2022-09-14T21:24:39.904Z,93.93
2022-09-14T21:26:57.111Z,95.18
2022-09-14T21:29:14.106Z,95.23
2022-09-14T21:31:31.224Z,94.20
2022-09-14T21:33:48.464Z,95.01
2022-09-14T21:36:05.685Z,95.08
2022-09-14T21:38:23.390Z,95.28
2022-09-14T21:40:40.532Z,93.96
2022-09-14T21:42:57.512Z,95.51
2022-09-14T21:45:14.972Z,95.75
2022-09-14T21:47:32.280Z,95.89
2022-09-14T21:49:49.367Z,94.41
2022-09-14T21:52:06.653Z,94.35
2022-09-14T21:54:23.937Z,94.85
2022-09-14T21:56:44.083Z,95.54
2022-09-14T21:59:00.965Z,95.00
2022-09-14T22:01:18.661Z,94.65
2022-09-14T22:03:37.175Z,96.32
2022-09-14T22:05:56.770Z,94.53
2022-09-14T22:08:14.153Z,94.71
2022-09-14T22:10:31.406Z,95.22
2022-09-14T22:12:48.375Z,94.93
2022-09-14T22:15:05.433Z,94.69
2022-09-14T22:17:22.349Z,96.63
2022-09-14T22:19:39.659Z,94.98
2022-09-14T22:21:56.766Z,95.94
2022-09-14T22:24:14.958Z,96.43
2022-09-14T22:26:31.895Z,94.71
2022-09-14T22:28:49.152Z,95.71
2022-09-14T22:31:07.272Z,94.89
2022-09-14T22:33:24.622Z,94.99
2022-09-14T22:35:42.971Z,94.74
2022-09-14T22:38:00.976Z,94.48
2022-09-14T22:40:19.296Z,96.55
2022-09-14T22:42:36.401Z,95.69
2022-09-14T22:44:53.287Z,94.68
2022-09-14T22:47:11.568Z,94.98
2022-09-14T22:49:28.555Z,95.54
2022-09-14T22:51:45.988Z,94.70
2022-09-14T22:54:04.217Z,96.34
2022-09-14T22:56:23.198Z,96.02
2022-09-14T22:58:41.197Z,94.79
2022-09-14T23:00:59.165Z,95.45
2022-09-14T23:03:16.903Z,94.57
2022-09-14T23:05:34.037Z,94.46
2022-09-14T23:07:51.393Z,94.37
2022-09-14T23:10:08.589Z,94.46
2022-09-14T23:12:30.546Z,95.63
2022-09-14T23:14:47.572Z,95.37
2022-09-14T23:17:06.717Z,95.35
2022-09-14T23:19:29.072Z,96.35
2022-09-14T23:21:46.460Z,94.86
2022-09-14T23:24:04.776Z,96.51
2022-09-14T23:26:24.473Z,95.58
2022-09-14T23:28:42.222Z,94.70
2022-09-14T23:30:59.259Z,95.48
2022-09-14T23:33:16.462Z,94.88
2022-09-14T23:35:37.449Z,93.82
2022-09-14T23:37:55.233Z,94.29
2022-09-14T23:40:13.338Z,93.98
2022-09-14T23:42:30.633Z,94.43
2022-09-14T23:44:47.615Z,94.79
2022-09-14T23:47:05.727Z,95.74
2022-09-14T23:49:23.778Z,94.52
2022-09-14T23:51:41.467Z,94.96
2022-09-14T23:53:59.320Z,95.76
2022-09-14T23:56:16.393Z,94.77
2022-09-14T23:58:33.725Z,96.44
